sensor_id;sensor_type;location;lat;lon;timestamp;P1;durP1;ratioP1;P2;durP2;ratioP2
19735;SDS011;32064;49.310;8.646;2022-08-04T00:00:30;1.70;;;1.33;;
19735;SDS011;32064;49.310;8.646;2022-08-04T00:03:13;1.08;;;0.90;;
19735;SDS011;32064;49.310;8.646;2022-08-04T00:10:54;1.08;;;0.90;;
19735;SDS011;32064;49.310;8.646;2022-08-04T00:13:26;1.48;;;1.10;;
19735;SDS011;32064;49.310;8.646;2022-08-04T00:15:53;1.10;;;1.00;;
19735;SDS011;32064;49.310;8.646;2022-08-04T00:18:26;1.45;;;1.17;;
19735;SDS011;32064;49.310;8.646;2022-08-04T00:20:58;1.20;;;1.10;;
19735;SDS011;32064;49.310;8.646;2022-08-04T00:23:31;1.23;;;1.13;;
19735;SDS011;32064;49.310;8.646;2022-08-04T00:25:58;1.20;;;1.10;;
19735;SDS011;32064;49.310;8.646;2022-08-04T00:28:25;1.33;;;1.20;;
19735;SDS011;32064;49.310;8.646;2022-08-04T00:30:51;1.45;;;1.02;;
19735;SDS011;32064;49.310;8.646;2022-08-04T00:33:18;1.75;;;1.25;;
19735;SDS011;32064;49.310;8.646;2022-08-04T00:35:45;3.25;;;1.30;;
19735;SDS011;32064;49.310;8.646;2022-08-04T00:38:12;1.48;;;1.38;;
19735;SDS011;32064;49.310;8.646;2022-08-04T00:40:43;2.58;;;2.00;;
19735;SDS011;32064;49.310;8.646;2022-08-04T00:51:13;2.75;;;2.15;;
19735;SDS011;32064;49.310;8.646;2022-08-04T00:57:02;3.53;;;2.13;;
19735;SDS011;32064;49.310;8.646;2022-08-04T01:02:28;3.25;;;2.25;;
19735;SDS011;32064;49.310;8.646;2022-08-04T01:10:12;2.85;;;1.92;;
19735;SDS011;32064;49.310;8.646;2022-08-04T01:18:24;2.70;;;2.20;;
19735;SDS011;32064;49.310;8.646;2022-08-04T01:24:17;3.10;;;1.83;;
19735;SDS011;32064;49.310;8.646;2022-08-04T01:27:03;2.13;;;1.92;;
19735;SDS011;32064;49.310;8.646;2022-08-04T01:29:34;3.28;;;1.90;;
19735;SDS011;32064;49.310;8.646;2022-08-04T01:32:10;3.30;;;2.00;;
19735;SDS011;32064;49.310;8.646;2022-08-04T01:35:00;1.88;;;1.50;;
19735;SDS011;32064;49.310;8.646;2022-08-04T01:37:47;1.92;;;1.52;;
19735;SDS011;32064;49.310;8.646;2022-08-04T01:40:21;2.45;;;2.00;;
19735;SDS011;32064;49.310;8.646;2022-08-04T01:42:48;3.15;;;1.70;;
19735;SDS011;32064;49.310;8.646;2022-08-04T01:45:16;2.22;;;1.67;;
19735;SDS011;32064;49.310;8.646;2022-08-04T01:47:48;4.18;;;1.60;;
19735;SDS011;32064;49.310;8.646;2022-08-04T01:50:15;3.10;;;1.58;;
19735;SDS011;32064;49.310;8.646;2022-08-04T01:52:42;1.33;;;1.20;;
19735;SDS011;32064;49.310;8.646;2022-08-04T01:55:12;1.65;;;1.10;;
19735;SDS011;32064;49.310;8.646;2022-08-04T01:57:42;2.08;;;1.48;;
19735;SDS011;32064;49.310;8.646;2022-08-04T02:00:11;1.65;;;1.40;;
19735;SDS011;32064;49.310;8.646;2022-08-04T02:02:39;2.17;;;1.50;;
19735;SDS011;32064;49.310;8.646;2022-08-04T02:05:05;3.00;;;1.80;;
19735;SDS011;32064;49.310;8.646;2022-08-04T02:15:27;2.97;;;1.10;;
19735;SDS011;32064;49.310;8.646;2022-08-04T02:18:19;1.52;;;1.30;;
19735;SDS011;32064;49.310;8.646;2022-08-04T02:20:48;1.20;;;1.10;;
19735;SDS011;32064;49.310;8.646;2022-08-04T02:23:38;1.33;;;1.15;;
19735;SDS011;32064;49.310;8.646;2022-08-04T02:26:11;1.42;;;1.20;;
19735;SDS011;32064;49.310;8.646;2022-08-04T02:28:50;2.38;;;1.25;;
19735;SDS011;32064;49.310;8.646;2022-08-04T02:31:30;1.30;;;1.20;;
19735;SDS011;32064;49.310;8.646;2022-08-04T02:34:04;1.98;;;1.15;;
19735;SDS011;32064;49.310;8.646;2022-08-04T02:36:37;1.80;;;1.60;;
19735;SDS011;32064;49.310;8.646;2022-08-04T02:39:04;1.48;;;1.38;;
19735;SDS011;32064;49.310;8.646;2022-08-04T02:41:31;1.23;;;1.08;;
19735;SDS011;32064;49.310;8.646;2022-08-04T02:44:01;1.20;;;1.10;;
19735;SDS011;32064;49.310;8.646;2022-08-04T02:46:29;4.15;;;1.45;;
19735;SDS011;32064;49.310;8.646;2022-08-04T02:48:56;1.98;;;1.20;;
19735;SDS011;32064;49.310;8.646;2022-08-04T02:51:25;1.40;;;1.27;;
19735;SDS011;32064;49.310;8.646;2022-08-04T02:53:53;2.78;;;1.20;;
19735;SDS011;32064;49.310;8.646;2022-08-04T02:56:22;1.30;;;1.20;;
19735;SDS011;32064;49.310;8.646;2022-08-04T02:58:50;1.20;;;1.10;;
19735;SDS011;32064;49.310;8.646;2022-08-04T03:01:20;1.48;;;1.20;;
19735;SDS011;32064;49.310;8.646;2022-08-04T03:18:49;1.80;;;1.40;;
19735;SDS011;32064;49.310;8.646;2022-08-04T03:27:18;1.38;;;1.27;;
19735;SDS011;32064;49.310;8.646;2022-08-04T03:30:19;1.10;;;1.00;;
19735;SDS011;32064;49.310;8.646;2022-08-04T03:33:23;1.92;;;1.40;;
19735;SDS011;32064;49.310;8.646;2022-08-04T04:09:45;2.50;;;1.30;;
19735;SDS011;32064;49.310;8.646;2022-08-04T04:15:50;1.75;;;1.00;;
19735;SDS011;32064;49.310;8.646;2022-08-04T04:18:22;2.47;;;1.10;;
19735;SDS011;32064;49.310;8.646;2022-08-04T04:21:17;1.73;;;1.10;;
19735;SDS011;32064;49.310;8.646;2022-08-04T04:29:28;3.78;;;1.20;;
19735;SDS011;32064;49.310;8.646;2022-08-04T04:35:09;5.22;;;1.50;;
19735;SDS011;32064;49.310;8.646;2022-08-04T04:45:35;1.48;;;1.02;;
19735;SDS011;32064;49.310;8.646;2022-08-04T04:53:32;1.40;;;0.90;;
19735;SDS011;32064;49.310;8.646;2022-08-04T04:58:48;2.05;;;1.13;;
19735;SDS011;32064;49.310;8.646;2022-08-04T05:01:21;1.17;;;1.08;;
19735;SDS011;32064;49.310;8.646;2022-08-04T05:06:53;1.85;;;1.10;;
19735;SDS011;32064;49.310;8.646;2022-08-04T05:15:26;2.25;;;1.02;;
19735;SDS011;32064;49.310;8.646;2022-08-04T05:17:55;1.20;;;1.10;;
19735;SDS011;32064;49.310;8.646;2022-08-04T05:20:26;4.10;;;1.17;;
19735;SDS011;32064;49.310;8.646;2022-08-04T05:22:59;1.40;;;1.00;;
19735;SDS011;32064;49.310;8.646;2022-08-04T05:28:21;0.73;;;0.73;;
19735;SDS011;32064;49.310;8.646;2022-08-04T05:30:56;2.70;;;0.90;;
19735;SDS011;32064;49.310;8.646;2022-08-04T05:33:26;1.10;;;1.00;;
19735;SDS011;32064;49.310;8.646;2022-08-04T05:35:57;0.80;;;0.80;;
19735;SDS011;32064;49.310;8.646;2022-08-04T05:38:30;1.20;;;1.10;;
19735;SDS011;32064;49.310;8.646;2022-08-04T05:40:59;1.75;;;1.10;;
19735;SDS011;32064;49.310;8.646;2022-08-04T05:43:26;1.60;;;0.95;;
19735;SDS011;32064;49.310;8.646;2022-08-04T05:45:52;3.30;;;0.93;;
19735;SDS011;32064;49.310;8.646;2022-08-04T05:48:21;5.68;;;1.23;;
19735;SDS011;32064;49.310;8.646;2022-08-04T05:50:48;2.75;;;0.80;;
19735;SDS011;32064;49.310;8.646;2022-08-04T05:53:14;2.80;;;1.08;;
19735;SDS011;32064;49.310;8.646;2022-08-04T05:55:41;6.43;;;1.20;;
19735;SDS011;32064;49.310;8.646;2022-08-04T05:58:08;1.33;;;1.08;;
19735;SDS011;32064;49.310;8.646;2022-08-04T06:00:34;1.98;;;1.23;;
19735;SDS011;32064;49.310;8.646;2022-08-04T06:03:02;1.77;;;1.50;;
19735;SDS011;32064;49.310;8.646;2022-08-04T06:05:28;2.50;;;1.10;;
19735;SDS011;32064;49.310;8.646;2022-08-04T06:07:54;2.33;;;1.23;;
19735;SDS011;32064;49.310;8.646;2022-08-04T06:10:20;2.10;;;1.20;;
19735;SDS011;32064;49.310;8.646;2022-08-04T06:12:48;5.22;;;1.17;;
19735;SDS011;32064;49.310;8.646;2022-08-04T06:15:18;1.27;;;1.17;;
19735;SDS011;32064;49.310;8.646;2022-08-04T06:17:47;1.55;;;0.90;;
19735;SDS011;32064;49.310;8.646;2022-08-04T06:20:14;1.33;;;0.90;;
19735;SDS011;32064;49.310;8.646;2022-08-04T06:22:41;1.30;;;1.08;;
19735;SDS011;32064;49.310;8.646;2022-08-04T06:25:10;4.25;;;1.23;;
19735;SDS011;32064;49.310;8.646;2022-08-04T06:27:40;1.27;;;0.95;;
19735;SDS011;32064;49.310;8.646;2022-08-04T06:30:07;1.70;;;1.10;;
19735;SDS011;32064;49.310;8.646;2022-08-04T06:32:38;1.75;;;1.00;;
19735;SDS011;32064;49.310;8.646;2022-08-04T06:35:14;2.65;;;1.25;;
19735;SDS011;32064;49.310;8.646;2022-08-04T06:37:46;1.10;;;0.90;;
19735;SDS011;32064;49.310;8.646;2022-08-04T06:40:13;1.02;;;0.85;;
19735;SDS011;32064;49.310;8.646;2022-08-04T06:42:41;7.35;;;1.30;;
19735;SDS011;32064;49.310;8.646;2022-08-04T06:45:09;1.85;;;1.02;;
19735;SDS011;32064;49.310;8.646;2022-08-04T06:47:36;3.72;;;1.10;;
19735;SDS011;32064;49.310;8.646;2022-08-04T06:50:03;4.78;;;1.13;;
19735;SDS011;32064;49.310;8.646;2022-08-04T06:52:29;0.82;;;0.82;;
19735;SDS011;32064;49.310;8.646;2022-08-04T06:54:55;3.17;;;1.10;;
19735;SDS011;32064;49.310;8.646;2022-08-04T06:57:25;3.20;;;1.23;;
19735;SDS011;32064;49.310;8.646;2022-08-04T06:59:57;3.05;;;1.30;;
19735;SDS011;32064;49.310;8.646;2022-08-04T07:02:25;1.30;;;1.20;;
19735;SDS011;32064;49.310;8.646;2022-08-04T07:04:52;1.00;;;0.90;;
19735;SDS011;32064;49.310;8.646;2022-08-04T07:07:18;1.73;;;1.20;;
19735;SDS011;32064;49.310;8.646;2022-08-04T07:09:44;3.00;;;1.17;;
19735;SDS011;32064;49.310;8.646;2022-08-04T07:12:10;3.30;;;1.20;;
19735;SDS011;32064;49.310;8.646;2022-08-04T07:14:37;4.65;;;1.83;;
19735;SDS011;32064;49.310;8.646;2022-08-04T07:17:05;3.22;;;1.25;;
19735;SDS011;32064;49.310;8.646;2022-08-04T07:19:33;1.95;;;1.20;;
19735;SDS011;32064;49.310;8.646;2022-08-04T07:22:00;1.45;;;1.10;;
19735;SDS011;32064;49.310;8.646;2022-08-04T07:24:30;2.78;;;1.20;;
19735;SDS011;32064;49.310;8.646;2022-08-04T07:26:56;1.33;;;1.13;;
19735;SDS011;32064;49.310;8.646;2022-08-04T07:29:22;3.60;;;1.30;;
19735;SDS011;32064;49.310;8.646;2022-08-04T07:31:48;1.23;;;1.10;;
19735;SDS011;32064;49.310;8.646;2022-08-04T07:34:14;4.72;;;1.17;;
19735;SDS011;32064;49.310;8.646;2022-08-04T07:36:40;8.57;;;1.30;;
19735;SDS011;32064;49.310;8.646;2022-08-04T07:39:05;1.25;;;1.02;;
19735;SDS011;32064;49.310;8.646;2022-08-04T07:41:31;3.15;;;1.48;;
19735;SDS011;32064;49.310;8.646;2022-08-04T07:43:57;1.98;;;1.23;;
19735;SDS011;32064;49.310;8.646;2022-08-04T07:46:23;1.42;;;1.10;;
19735;SDS011;32064;49.310;8.646;2022-08-04T07:48:49;2.30;;;1.58;;
19735;SDS011;32064;49.310;8.646;2022-08-04T07:51:15;1.33;;;1.20;;
19735;SDS011;32064;49.310;8.646;2022-08-04T07:53:41;1.33;;;1.20;;
19735;SDS011;32064;49.310;8.646;2022-08-04T07:56:07;2.30;;;1.20;;
19735;SDS011;32064;49.310;8.646;2022-08-04T07:58:34;2.78;;;1.30;;
19735;SDS011;32064;49.310;8.646;2022-08-04T08:00:59;3.80;;;1.33;;
19735;SDS011;32064;49.310;8.646;2022-08-04T08:03:25;6.03;;;1.50;;
19735;SDS011;32064;49.310;8.646;2022-08-04T08:05:51;1.23;;;1.13;;
19735;SDS011;32064;49.310;8.646;2022-08-04T08:08:17;1.30;;;1.10;;
19735;SDS011;32064;49.310;8.646;2022-08-04T08:10:46;2.65;;;1.40;;
19735;SDS011;32064;49.310;8.646;2022-08-04T08:13:13;1.52;;;1.13;;
19735;SDS011;32064;49.310;8.646;2022-08-04T08:15:40;2.90;;;1.27;;
19735;SDS011;32064;49.310;8.646;2022-08-04T08:18:07;1.65;;;1.35;;
19735;SDS011;32064;49.310;8.646;2022-08-04T08:20:32;7.60;;;1.30;;
19735;SDS011;32064;49.310;8.646;2022-08-04T08:22:59;6.57;;;1.20;;
19735;SDS011;32064;49.310;8.646;2022-08-04T08:25:26;2.75;;;1.05;;
19735;SDS011;32064;49.310;8.646;2022-08-04T08:27:51;2.45;;;1.20;;
19735;SDS011;32064;49.310;8.646;2022-08-04T08:30:17;1.73;;;1.30;;
19735;SDS011;32064;49.310;8.646;2022-08-04T08:32:42;11.27;;;1.50;;
19735;SDS011;32064;49.310;8.646;2022-08-04T08:35:08;2.40;;;1.13;;
19735;SDS011;32064;49.310;8.646;2022-08-04T08:37:38;4.43;;;1.20;;
19735;SDS011;32064;49.310;8.646;2022-08-04T09:00:00;1.20;;;1.10;;
19735;SDS011;32064;49.310;8.646;2022-08-04T09:11:18;1.95;;;1.38;;
19735;SDS011;32064;49.310;8.646;2022-08-04T09:16:23;1.77;;;1.60;;
19735;SDS011;32064;49.310;8.646;2022-08-04T09:22:00;3.00;;;1.80;;
19735;SDS011;32064;49.310;8.646;2022-08-04T09:27:51;4.78;;;1.65;;
19735;SDS011;32064;49.310;8.646;2022-08-04T09:30:26;2.35;;;1.80;;
19735;SDS011;32064;49.310;8.646;2022-08-04T09:33:17;2.75;;;1.70;;
19735;SDS011;32064;49.310;8.646;2022-08-04T09:35:58;3.83;;;2.15;;
19735;SDS011;32064;49.310;8.646;2022-08-04T09:47:18;1.52;;;1.42;;
19735;SDS011;32064;49.310;8.646;2022-08-04T09:52:25;3.85;;;1.42;;
19735;SDS011;32064;49.310;8.646;2022-08-04T09:58:08;1.67;;;1.42;;
19735;SDS011;32064;49.310;8.646;2022-08-04T10:00:47;4.15;;;1.83;;
19735;SDS011;32064;49.310;8.646;2022-08-04T10:03:17;2.25;;;1.35;;
19735;SDS011;32064;49.310;8.646;2022-08-04T10:08:28;1.58;;;1.30;;
19735;SDS011;32064;49.310;8.646;2022-08-04T10:11:01;1.30;;;1.20;;
19735;SDS011;32064;49.310;8.646;2022-08-04T10:13:50;1.40;;;1.30;;
19735;SDS011;32064;49.310;8.646;2022-08-04T10:24:25;1.20;;;1.10;;
19735;SDS011;32064;49.310;8.646;2022-08-04T10:26:59;1.52;;;1.08;;
19735;SDS011;32064;49.310;8.646;2022-08-04T10:29:36;1.98;;;1.35;;
19735;SDS011;32064;49.310;8.646;2022-08-04T10:35:07;1.58;;;1.10;;
19735;SDS011;32064;49.310;8.646;2022-08-04T10:40:47;2.10;;;1.30;;
19735;SDS011;32064;49.310;8.646;2022-08-04T10:48:50;1.35;;;1.20;;
19735;SDS011;32064;49.310;8.646;2022-08-04T10:54:09;3.10;;;1.42;;
19735;SDS011;32064;49.310;8.646;2022-08-04T10:56:43;2.15;;;1.42;;
19735;SDS011;32064;49.310;8.646;2022-08-04T10:59:18;2.83;;;1.35;;
19735;SDS011;32064;49.310;8.646;2022-08-04T11:01:49;1.63;;;1.38;;
19735;SDS011;32064;49.310;8.646;2022-08-04T11:04:24;3.47;;;1.50;;
19735;SDS011;32064;49.310;8.646;2022-08-04T11:06:55;1.33;;;1.23;;
19735;SDS011;32064;49.310;8.646;2022-08-04T11:09:23;1.30;;;1.20;;
19735;SDS011;32064;49.310;8.646;2022-08-04T11:11:53;1.50;;;1.40;;
19735;SDS011;32064;49.310;8.646;2022-08-04T11:14:23;1.98;;;1.35;;
19735;SDS011;32064;49.310;8.646;2022-08-04T11:20:13;1.63;;;1.48;;
19735;SDS011;32064;49.310;8.646;2022-08-04T11:25:40;1.67;;;1.20;;
19735;SDS011;32064;49.310;8.646;2022-08-04T11:36:02;1.08;;;0.98;;
19735;SDS011;32064;49.310;8.646;2022-08-04T11:39:05;0.70;;;0.70;;
19735;SDS011;32064;49.310;8.646;2022-08-04T11:41:41;5.97;;;0.93;;
19735;SDS011;32064;49.310;8.646;2022-08-04T11:44:47;1.30;;;0.80;;
19735;SDS011;32064;49.310;8.646;2022-08-04T11:47:21;3.72;;;0.82;;
19735;SDS011;32064;49.310;8.646;2022-08-04T11:50:02;2.85;;;1.40;;
19735;SDS011;32064;49.310;8.646;2022-08-04T11:52:28;0.90;;;0.90;;
19735;SDS011;32064;49.310;8.646;2022-08-04T11:54:56;0.90;;;0.90;;
19735;SDS011;32064;49.310;8.646;2022-08-04T11:57:23;1.20;;;1.10;;
19735;SDS011;32064;49.310;8.646;2022-08-04T11:59:50;1.58;;;1.10;;
19735;SDS011;32064;49.310;8.646;2022-08-04T12:02:32;1.10;;;1.00;;
19735;SDS011;32064;49.310;8.646;2022-08-04T12:05:01;1.27;;;0.82;;
19735;SDS011;32064;49.310;8.646;2022-08-04T12:16:20;1.13;;;1.02;;
19735;SDS011;32064;49.310;8.646;2022-08-04T12:19:00;1.13;;;0.80;;
19735;SDS011;32064;49.310;8.646;2022-08-04T12:21:30;0.70;;;0.70;;
19735;SDS011;32064;49.310;8.646;2022-08-04T12:24:01;1.23;;;0.90;;
19735;SDS011;32064;49.310;8.646;2022-08-04T12:26:35;2.90;;;0.80;;
19735;SDS011;32064;49.310;8.646;2022-08-04T12:29:06;0.80;;;0.60;;
19735;SDS011;32064;49.310;8.646;2022-08-04T12:31:43;1.35;;;0.70;;
19735;SDS011;32064;49.310;8.646;2022-08-04T12:34:14;0.90;;;0.60;;
19735;SDS011;32064;49.310;8.646;2022-08-04T12:36:51;0.70;;;0.60;;
19735;SDS011;32064;49.310;8.646;2022-08-04T12:39:23;1.10;;;0.60;;
19735;SDS011;32064;49.310;8.646;2022-08-04T12:41:53;1.95;;;0.60;;
19735;SDS011;32064;49.310;8.646;2022-08-04T12:44:22;0.55;;;0.50;;
19735;SDS011;32064;49.310;8.646;2022-08-04T12:46:49;1.40;;;0.73;;
19735;SDS011;32064;49.310;8.646;2022-08-04T12:49:15;0.60;;;0.60;;
19735;SDS011;32064;49.310;8.646;2022-08-04T12:51:42;1.08;;;0.68;;
19735;SDS011;32064;49.310;8.646;2022-08-04T12:54:10;0.57;;;0.47;;
19735;SDS011;32064;49.310;8.646;2022-08-04T12:56:36;0.50;;;0.43;;
19735;SDS011;32064;49.310;8.646;2022-08-04T12:59:08;0.55;;;0.47;;
19735;SDS011;32064;49.310;8.646;2022-08-04T13:01:36;1.75;;;0.45;;
19735;SDS011;32064;49.310;8.646;2022-08-04T13:07:05;3.22;;;0.80;;
19735;SDS011;32064;49.310;8.646;2022-08-04T13:09:35;2.40;;;0.68;;
19735;SDS011;32064;49.310;8.646;2022-08-04T13:12:10;1.15;;;0.80;;
19735;SDS011;32064;49.310;8.646;2022-08-04T13:14:41;0.80;;;0.70;;
19735;SDS011;32064;49.310;8.646;2022-08-04T13:17:10;0.60;;;0.60;;
19735;SDS011;32064;49.310;8.646;2022-08-04T13:19:36;0.70;;;0.70;;
19735;SDS011;32064;49.310;8.646;2022-08-04T13:22:02;0.73;;;0.73;;
19735;SDS011;32064;49.310;8.646;2022-08-04T13:24:30;1.27;;;1.00;;
19735;SDS011;32064;49.310;8.646;2022-08-04T13:27:02;2.22;;;0.90;;
19735;SDS011;32064;49.310;8.646;2022-08-04T13:29:43;4.38;;;1.00;;
19735;SDS011;32064;49.310;8.646;2022-08-04T13:32:14;0.77;;;0.70;;
19735;SDS011;32064;49.310;8.646;2022-08-04T13:34:42;2.15;;;0.73;;
19735;SDS011;32064;49.310;8.646;2022-08-04T13:37:10;0.85;;;0.77;;
19735;SDS011;32064;49.310;8.646;2022-08-04T13:39:37;0.50;;;0.50;;
19735;SDS011;32064;49.310;8.646;2022-08-04T13:42:09;0.85;;;0.85;;
19735;SDS011;32064;49.310;8.646;2022-08-04T13:44:36;0.60;;;0.60;;
19735;SDS011;32064;49.310;8.646;2022-08-04T13:47:05;1.73;;;0.80;;
19735;SDS011;32064;49.310;8.646;2022-08-04T13:49:36;3.50;;;0.80;;
19735;SDS011;32064;49.310;8.646;2022-08-04T13:52:03;0.73;;;0.70;;
19735;SDS011;32064;49.310;8.646;2022-08-04T13:54:40;0.88;;;0.77;;
19735;SDS011;32064;49.310;8.646;2022-08-04T13:57:32;0.60;;;0.60;;
19735;SDS011;32064;49.310;8.646;2022-08-04T14:00:07;4.13;;;0.80;;
19735;SDS011;32064;49.310;8.646;2022-08-04T14:05:20;0.60;;;0.60;;
19735;SDS011;32064;49.310;8.646;2022-08-04T14:07:59;0.80;;;0.80;;
19735;SDS011;32064;49.310;8.646;2022-08-04T14:10:32;1.10;;;1.00;;
19735;SDS011;32064;49.310;8.646;2022-08-04T14:12:58;0.60;;;0.60;;
19735;SDS011;32064;49.310;8.646;2022-08-04T14:18:20;1.33;;;0.70;;
19735;SDS011;32064;49.310;8.646;2022-08-04T14:20:57;1.02;;;0.70;;
19735;SDS011;32064;49.310;8.646;2022-08-04T14:23:42;2.63;;;0.70;;
19735;SDS011;32064;49.310;8.646;2022-08-04T14:26:15;0.60;;;0.60;;
19735;SDS011;32064;49.310;8.646;2022-08-04T14:28:50;0.90;;;0.65;;
19735;SDS011;32064;49.310;8.646;2022-08-04T14:31:18;0.60;;;0.60;;
19735;SDS011;32064;49.310;8.646;2022-08-04T14:33:46;2.05;;;0.50;;
19735;SDS011;32064;49.310;8.646;2022-08-04T14:36:14;1.20;;;0.95;;
19735;SDS011;32064;49.310;8.646;2022-08-04T14:38:48;1.83;;;0.77;;
19735;SDS011;32064;49.310;8.646;2022-08-04T14:41:20;1.73;;;0.75;;
19735;SDS011;32064;49.310;8.646;2022-08-04T14:43:51;2.45;;;0.77;;
19735;SDS011;32064;49.310;8.646;2022-08-04T14:46:19;1.55;;;0.73;;
19735;SDS011;32064;49.310;8.646;2022-08-04T14:48:59;0.68;;;0.60;;
19735;SDS011;32064;49.310;8.646;2022-08-04T14:51:33;0.90;;;0.77;;
19735;SDS011;32064;49.310;8.646;2022-08-04T14:54:10;0.70;;;0.70;;
19735;SDS011;32064;49.310;8.646;2022-08-04T14:56:41;0.70;;;0.70;;
19735;SDS011;32064;49.310;8.646;2022-08-04T14:59:16;1.77;;;0.93;;
19735;SDS011;32064;49.310;8.646;2022-08-04T15:01:42;0.90;;;0.90;;
19735;SDS011;32064;49.310;8.646;2022-08-04T15:04:10;3.75;;;1.15;;
19735;SDS011;32064;49.310;8.646;2022-08-04T15:06:37;1.00;;;0.90;;
19735;SDS011;32064;49.310;8.646;2022-08-04T15:09:09;1.08;;;0.95;;
19735;SDS011;32064;49.310;8.646;2022-08-04T15:11:35;0.77;;;0.77;;
19735;SDS011;32064;49.310;8.646;2022-08-04T15:14:02;1.10;;;0.90;;
19735;SDS011;32064;49.310;8.646;2022-08-04T15:16:29;0.90;;;0.90;;
19735;SDS011;32064;49.310;8.646;2022-08-04T15:18:56;1.83;;;1.10;;
19735;SDS011;32064;49.310;8.646;2022-08-04T15:21:24;5.65;;;0.90;;
19735;SDS011;32064;49.310;8.646;2022-08-04T15:23:53;2.45;;;0.77;;
19735;SDS011;32064;49.310;8.646;2022-08-04T15:26:28;1.05;;;0.70;;
19735;SDS011;32064;49.310;8.646;2022-08-04T15:32:03;1.33;;;0.73;;
19735;SDS011;32064;49.310;8.646;2022-08-04T15:34:49;0.77;;;0.57;;
19735;SDS011;32064;49.310;8.646;2022-08-04T15:40:11;0.60;;;0.60;;
19735;SDS011;32064;49.310;8.646;2022-08-04T15:43:15;0.90;;;0.60;;
19735;SDS011;32064;49.310;8.646;2022-08-04T15:45:56;0.82;;;0.70;;
19735;SDS011;32064;49.310;8.646;2022-08-04T15:48:29;1.90;;;0.70;;
19735;SDS011;32064;49.310;8.646;2022-08-04T15:53:24;1.48;;;0.65;;
19735;SDS011;32064;49.310;8.646;2022-08-04T15:55:50;0.93;;;0.70;;
19735;SDS011;32064;49.310;8.646;2022-08-04T15:58:18;0.73;;;0.73;;
19735;SDS011;32064;49.310;8.646;2022-08-04T16:19:08;3.17;;;0.80;;
19735;SDS011;32064;49.310;8.646;2022-08-04T16:21:45;0.70;;;0.65;;
19735;SDS011;32064;49.310;8.646;2022-08-04T16:26:45;0.70;;;0.70;;
19735;SDS011;32064;49.310;8.646;2022-08-04T16:29:24;0.70;;;0.70;;
19735;SDS011;32064;49.310;8.646;2022-08-04T16:34:36;3.03;;;0.70;;
19735;SDS011;32064;49.310;8.646;2022-08-04T16:37:05;2.47;;;0.80;;
19735;SDS011;32064;49.310;8.646;2022-08-04T16:39:31;0.93;;;0.70;;
19735;SDS011;32064;49.310;8.646;2022-08-04T16:41:57;1.17;;;0.70;;
19735;SDS011;32064;49.310;8.646;2022-08-04T16:44:35;0.60;;;0.60;;
19735;SDS011;32064;49.310;8.646;2022-08-04T16:47:03;2.38;;;0.80;;
19735;SDS011;32064;49.310;8.646;2022-08-04T16:49:31;4.32;;;0.80;;
19735;SDS011;32064;49.310;8.646;2022-08-04T16:52:04;0.70;;;0.70;;
19735;SDS011;32064;49.310;8.646;2022-08-04T16:54:31;0.75;;;0.75;;
19735;SDS011;32064;49.310;8.646;2022-08-04T16:56:59;0.60;;;0.60;;
19735;SDS011;32064;49.310;8.646;2022-08-04T16:59:25;1.95;;;0.70;;
19735;SDS011;32064;49.310;8.646;2022-08-04T17:01:51;0.60;;;0.60;;
19735;SDS011;32064;49.310;8.646;2022-08-04T17:04:32;0.75;;;0.70;;
19735;SDS011;32064;49.310;8.646;2022-08-04T17:07:02;2.58;;;0.70;;
19735;SDS011;32064;49.310;8.646;2022-08-04T17:09:29;0.65;;;0.65;;
19735;SDS011;32064;49.310;8.646;2022-08-04T17:11:55;0.57;;;0.57;;
19735;SDS011;32064;49.310;8.646;2022-08-04T17:14:22;1.00;;;0.60;;
19735;SDS011;32064;49.310;8.646;2022-08-04T17:16:50;0.50;;;0.50;;
19735;SDS011;32064;49.310;8.646;2022-08-04T17:19:17;0.82;;;0.73;;
19735;SDS011;32064;49.310;8.646;2022-08-04T17:21:43;0.85;;;0.60;;
19735;SDS011;32064;49.310;8.646;2022-08-04T17:24:09;0.77;;;0.65;;
19735;SDS011;32064;49.310;8.646;2022-08-04T17:26:35;1.02;;;0.85;;
19735;SDS011;32064;49.310;8.646;2022-08-04T17:29:02;0.77;;;0.77;;
19735;SDS011;32064;49.310;8.646;2022-08-04T17:31:29;1.00;;;0.60;;
19735;SDS011;32064;49.310;8.646;2022-08-04T17:33:58;0.60;;;0.60;;
19735;SDS011;32064;49.310;8.646;2022-08-04T17:36:29;2.10;;;0.80;;
19735;SDS011;32064;49.310;8.646;2022-08-04T17:39:00;0.80;;;0.70;;
19735;SDS011;32064;49.310;8.646;2022-08-04T17:41:29;0.63;;;0.63;;
19735;SDS011;32064;49.310;8.646;2022-08-04T17:43:58;0.88;;;0.88;;
19735;SDS011;32064;49.310;8.646;2022-08-04T17:54:15;1.10;;;0.75;;
19735;SDS011;32064;49.310;8.646;2022-08-04T17:56:49;1.10;;;0.80;;
19735;SDS011;32064;49.310;8.646;2022-08-04T18:04:28;0.85;;;0.85;;
19735;SDS011;32064;49.310;8.646;2022-08-04T18:07:06;1.52;;;0.90;;
19735;SDS011;32064;49.310;8.646;2022-08-04T18:09:36;2.38;;;0.60;;
19735;SDS011;32064;49.310;8.646;2022-08-04T18:12:03;5.25;;;1.10;;
19735;SDS011;32064;49.310;8.646;2022-08-04T18:15:04;4.93;;;1.25;;
19735;SDS011;32064;49.310;8.646;2022-08-04T18:17:38;1.75;;;1.10;;
19735;SDS011;32064;49.310;8.646;2022-08-04T18:22:30;2.38;;;1.30;;
19735;SDS011;32064;49.310;8.646;2022-08-04T18:24:56;4.85;;;1.10;;
19735;SDS011;32064;49.310;8.646;2022-08-04T18:27:22;2.20;;;1.20;;
19735;SDS011;32064;49.310;8.646;2022-08-04T18:29:50;3.08;;;1.27;;
19735;SDS011;32064;49.310;8.646;2022-08-04T18:32:16;3.15;;;1.20;;
19735;SDS011;32064;49.310;8.646;2022-08-04T18:34:42;1.40;;;1.10;;
19735;SDS011;32064;49.310;8.646;2022-08-04T18:37:07;1.85;;;1.02;;
19735;SDS011;32064;49.310;8.646;2022-08-04T18:39:33;4.00;;;1.20;;
19735;SDS011;32064;49.310;8.646;2022-08-04T18:41:59;2.20;;;1.33;;
19735;SDS011;32064;49.310;8.646;2022-08-04T18:44:25;1.50;;;1.25;;
19735;SDS011;32064;49.310;8.646;2022-08-04T18:46:53;1.80;;;1.20;;
19735;SDS011;32064;49.310;8.646;2022-08-04T18:49:18;2.83;;;1.58;;
19735;SDS011;32064;49.310;8.646;2022-08-04T18:51:47;1.92;;;1.55;;
19735;SDS011;32064;49.310;8.646;2022-08-04T18:54:12;1.40;;;1.10;;
19735;SDS011;32064;49.310;8.646;2022-08-04T18:56:38;4.00;;;1.63;;
19735;SDS011;32064;49.310;8.646;2022-08-04T18:59:04;3.33;;;1.50;;
19735;SDS011;32064;49.310;8.646;2022-08-04T19:01:31;2.42;;;1.15;;
19735;SDS011;32064;49.310;8.646;2022-08-04T19:03:57;2.72;;;1.00;;
19735;SDS011;32064;49.310;8.646;2022-08-04T19:06:22;1.27;;;1.00;;
19735;SDS011;32064;49.310;8.646;2022-08-04T19:08:48;3.17;;;1.48;;
19735;SDS011;32064;49.310;8.646;2022-08-04T19:11:13;1.40;;;1.30;;
19735;SDS011;32064;49.310;8.646;2022-08-04T19:13:39;2.15;;;1.20;;
19735;SDS011;32064;49.310;8.646;2022-08-04T19:16:05;1.20;;;1.10;;
19735;SDS011;32064;49.310;8.646;2022-08-04T19:18:30;4.20;;;1.23;;
19735;SDS011;32064;49.310;8.646;2022-08-04T19:20:57;2.97;;;1.25;;
19735;SDS011;32064;49.310;8.646;2022-08-04T19:23:23;6.70;;;1.40;;
19735;SDS011;32064;49.310;8.646;2022-08-04T19:25:49;2.47;;;1.00;;
19735;SDS011;32064;49.310;8.646;2022-08-04T19:28:15;1.10;;;1.00;;
19735;SDS011;32064;49.310;8.646;2022-08-04T19:30:41;1.88;;;1.02;;
19735;SDS011;32064;49.310;8.646;2022-08-04T19:33:07;2.45;;;1.10;;
19735;SDS011;32064;49.310;8.646;2022-08-04T19:35:33;1.83;;;1.17;;
19735;SDS011;32064;49.310;8.646;2022-08-04T19:37:58;5.85;;;1.20;;
19735;SDS011;32064;49.310;8.646;2022-08-04T19:40:24;2.55;;;1.25;;
19735;SDS011;32064;49.310;8.646;2022-08-04T19:42:49;3.00;;;1.00;;
19735;SDS011;32064;49.310;8.646;2022-08-04T19:45:15;1.77;;;1.00;;
19735;SDS011;32064;49.310;8.646;2022-08-04T19:47:41;2.25;;;1.05;;
19735;SDS011;32064;49.310;8.646;2022-08-04T19:50:06;2.55;;;1.25;;
19735;SDS011;32064;49.310;8.646;2022-08-04T19:52:32;1.35;;;1.05;;
19735;SDS011;32064;49.310;8.646;2022-08-04T19:54:57;7.28;;;1.20;;
19735;SDS011;32064;49.310;8.646;2022-08-04T19:57:23;8.88;;;1.15;;
19735;SDS011;32064;49.310;8.646;2022-08-04T19:59:48;7.97;;;1.20;;